sensor_id;sensor_type;location;lat;lon;timestamp;P1;durP1;ratioP1;P2;durP2;ratioP2
64335;SDS011;50672;53.362;-6.240;2022-09-09T00:04:42;10.07;;;4.30;;
64335;SDS011;50672;53.362;-6.240;2022-09-09T00:07:19;10.37;;;4.13;;
64335;SDS011;50672;53.362;-6.240;2022-09-09T00:15:37;7.10;;;3.70;;
64335;SDS011;50672;53.362;-6.240;2022-09-09T00:23:37;8.37;;;3.83;;
64335;SDS011;50672;53.362;-6.240;2022-09-09T00:31:38;7.23;;;3.57;;
64335;SDS011;50672;53.362;-6.240;2022-09-09T00:34:26;6.80;;;3.13;;
64335;SDS011;50672;53.362;-6.240;2022-09-09T00:36:53;8.73;;;3.60;;
64335;SDS011;50672;53.362;-6.240;2022-09-09T00:57:48;7.70;;;5.20;;
64335;SDS011;50672;53.362;-6.240;2022-09-09T01:00:22;7.37;;;4.43;;
64335;SDS011;50672;53.362;-6.240;2022-09-09T01:03:06;9.87;;;4.80;;
64335;SDS011;50672;53.362;-6.240;2022-09-09T01:05:47;10.50;;;4.22;;
64335;SDS011;50672;53.362;-6.240;2022-09-09T01:08:36;8.18;;;4.00;;
64335;SDS011;50672;53.362;-6.240;2022-09-09T01:11:23;7.13;;;3.90;;
64335;SDS011;50672;53.362;-6.240;2022-09-09T01:14:14;6.77;;;4.73;;
64335;SDS011;50672;53.362;-6.240;2022-09-09T01:16:58;5.63;;;3.87;;
64335;SDS011;50672;53.362;-6.240;2022-09-09T01:19:37;8.03;;;4.27;;
64335;SDS011;50672;53.362;-6.240;2022-09-09T01:25:01;9.20;;;4.07;;
64335;SDS011;50672;53.362;-6.240;2022-09-09T01:27:39;5.23;;;4.33;;
64335;SDS011;50672;53.362;-6.240;2022-09-09T01:30:11;5.27;;;4.47;;
64335;SDS011;50672;53.362;-6.240;2022-09-09T01:32:41;6.53;;;3.40;;
64335;SDS011;50672;53.362;-6.240;2022-09-09T01:35:11;8.37;;;3.90;;
64335;SDS011;50672;53.362;-6.240;2022-09-09T01:37:43;5.03;;;3.63;;
64335;SDS011;50672;53.362;-6.240;2022-09-09T01:40:11;4.63;;;3.37;;
64335;SDS011;50672;53.362;-6.240;2022-09-09T01:42:38;6.57;;;3.50;;
64335;SDS011;50672;53.362;-6.240;2022-09-09T01:45:05;4.30;;;3.40;;
64335;SDS011;50672;53.362;-6.240;2022-09-09T01:47:33;5.80;;;3.63;;
64335;SDS011;50672;53.362;-6.240;2022-09-09T01:50:01;6.47;;;3.50;;
64335;SDS011;50672;53.362;-6.240;2022-09-09T01:52:29;7.20;;;3.50;;
64335;SDS011;50672;53.362;-6.240;2022-09-09T01:55:06;4.80;;;3.13;;
64335;SDS011;50672;53.362;-6.240;2022-09-09T01:57:47;6.63;;;3.83;;
64335;SDS011;50672;53.362;-6.240;2022-09-09T02:00:22;6.47;;;4.03;;
64335;SDS011;50672;53.362;-6.240;2022-09-09T02:05:57;6.90;;;3.53;;
64335;SDS011;50672;53.362;-6.240;2022-09-09T02:08:42;5.80;;;3.17;;
64335;SDS011;50672;53.362;-6.240;2022-09-09T02:11:19;6.80;;;3.27;;
64335;SDS011;50672;53.362;-6.240;2022-09-09T02:13:48;9.33;;;4.07;;
64335;SDS011;50672;53.362;-6.240;2022-09-09T02:16:24;4.85;;;3.45;;
64335;SDS011;50672;53.362;-6.240;2022-09-09T02:18:59;6.53;;;3.63;;
64335;SDS011;50672;53.362;-6.240;2022-09-09T02:21:31;9.80;;;3.70;;
64335;SDS011;50672;53.362;-6.240;2022-09-09T02:24:06;6.00;;;2.90;;
64335;SDS011;50672;53.362;-6.240;2022-09-09T02:26:37;7.60;;;3.37;;
64335;SDS011;50672;53.362;-6.240;2022-09-09T02:29:09;5.47;;;3.13;;
64335;SDS011;50672;53.362;-6.240;2022-09-09T02:31:41;6.32;;;3.30;;
64335;SDS011;50672;53.362;-6.240;2022-09-09T02:34:10;5.50;;;3.43;;
64335;SDS011;50672;53.362;-6.240;2022-09-09T02:36:40;5.17;;;3.10;;
64335;SDS011;50672;53.362;-6.240;2022-09-09T02:39:09;4.40;;;2.50;;
64335;SDS011;50672;53.362;-6.240;2022-09-09T02:41:37;6.87;;;2.97;;
64335;SDS011;50672;53.362;-6.240;2022-09-09T02:44:13;5.03;;;2.97;;
64335;SDS011;50672;53.362;-6.240;2022-09-09T02:46:58;7.20;;;3.37;;
64335;SDS011;50672;53.362;-6.240;2022-09-09T02:52:18;5.53;;;2.70;;
64335;SDS011;50672;53.362;-6.240;2022-09-09T02:54:50;4.70;;;2.43;;
64335;SDS011;50672;53.362;-6.240;2022-09-09T02:57:27;7.60;;;3.33;;
64335;SDS011;50672;53.362;-6.240;2022-09-09T02:59:57;4.63;;;2.93;;
64335;SDS011;50672;53.362;-6.240;2022-09-09T03:02:27;5.80;;;2.47;;
64335;SDS011;50672;53.362;-6.240;2022-09-09T03:04:54;4.43;;;2.70;;
64335;SDS011;50672;53.362;-6.240;2022-09-09T03:07:21;5.13;;;2.93;;
64335;SDS011;50672;53.362;-6.240;2022-09-09T03:09:49;4.17;;;2.60;;
64335;SDS011;50672;53.362;-6.240;2022-09-09T03:13:16;4.47;;;2.30;;
64335;SDS011;50672;53.362;-6.240;2022-09-09T03:16:42;3.57;;;2.40;;
64335;SDS011;50672;53.362;-6.240;2022-09-09T03:20:26;3.37;;;2.30;;
64335;SDS011;50672;53.362;-6.240;2022-09-09T03:23:52;3.73;;;2.23;;
64335;SDS011;50672;53.362;-6.240;2022-09-09T03:27:18;5.43;;;2.60;;
64335;SDS011;50672;53.362;-6.240;2022-09-09T03:31:10;8.23;;;2.70;;
64335;SDS011;50672;53.362;-6.240;2022-09-09T03:33:37;5.63;;;3.83;;
64335;SDS011;50672;53.362;-6.240;2022-09-09T03:37:03;5.93;;;3.20;;
64335;SDS011;50672;53.362;-6.240;2022-09-09T03:40:30;5.77;;;2.67;;
64335;SDS011;50672;53.362;-6.240;2022-09-09T03:44:11;5.47;;;2.80;;
64335;SDS011;50672;53.362;-6.240;2022-09-09T03:46:38;6.03;;;2.70;;
64335;SDS011;50672;53.362;-6.240;2022-09-09T03:49:05;5.17;;;2.50;;
64335;SDS011;50672;53.362;-6.240;2022-09-09T03:51:32;7.87;;;3.10;;
64335;SDS011;50672;53.362;-6.240;2022-09-09T03:54:02;6.30;;;2.80;;
64335;SDS011;50672;53.362;-6.240;2022-09-09T03:56:31;7.97;;;3.30;;
64335;SDS011;50672;53.362;-6.240;2022-09-09T03:58:58;6.03;;;3.30;;
64335;SDS011;50672;53.362;-6.240;2022-09-09T04:01:25;4.57;;;2.63;;
64335;SDS011;50672;53.362;-6.240;2022-09-09T04:03:52;5.53;;;2.83;;
64335;SDS011;50672;53.362;-6.240;2022-09-09T04:06:18;5.33;;;2.93;;
64335;SDS011;50672;53.362;-6.240;2022-09-09T04:08:47;5.20;;;2.90;;
64335;SDS011;50672;53.362;-6.240;2022-09-09T04:11:15;4.97;;;2.73;;
64335;SDS011;50672;53.362;-6.240;2022-09-09T04:13:42;5.63;;;3.57;;
64335;SDS011;50672;53.362;-6.240;2022-09-09T04:16:11;6.97;;;3.07;;
64335;SDS011;50672;53.362;-6.240;2022-09-09T04:18:39;3.33;;;2.23;;
64335;SDS011;50672;53.362;-6.240;2022-09-09T04:21:07;3.10;;;2.40;;
64335;SDS011;50672;53.362;-6.240;2022-09-09T04:23:36;5.10;;;2.70;;
64335;SDS011;50672;53.362;-6.240;2022-09-09T04:26:03;5.60;;;2.03;;
64335;SDS011;50672;53.362;-6.240;2022-09-09T04:28:31;2.77;;;2.40;;
64335;SDS011;50672;53.362;-6.240;2022-09-09T04:31:57;4.27;;;2.20;;
64335;SDS011;50672;53.362;-6.240;2022-09-09T04:35:23;5.37;;;2.33;;
64335;SDS011;50672;53.362;-6.240;2022-09-09T04:39:14;4.73;;;2.13;;
64335;SDS011;50672;53.362;-6.240;2022-09-09T04:42:41;4.63;;;2.30;;
64335;SDS011;50672;53.362;-6.240;2022-09-09T04:45:36;3.33;;;2.03;;
64335;SDS011;50672;53.362;-6.240;2022-09-09T04:48:03;3.47;;;2.13;;
64335;SDS011;50672;53.362;-6.240;2022-09-09T04:50:30;5.20;;;2.23;;
64335;SDS011;50672;53.362;-6.240;2022-09-09T04:53:01;4.33;;;2.30;;
64335;SDS011;50672;53.362;-6.240;2022-09-09T04:56:27;3.20;;;1.83;;
64335;SDS011;50672;53.362;-6.240;2022-09-09T04:59:54;4.27;;;2.30;;
64335;SDS011;50672;53.362;-6.240;2022-09-09T05:03:20;3.47;;;2.03;;
64335;SDS011;50672;53.362;-6.240;2022-09-09T05:07:13;2.43;;;1.93;;
64335;SDS011;50672;53.362;-6.240;2022-09-09T05:10:39;4.37;;;2.20;;
64335;SDS011;50672;53.362;-6.240;2022-09-09T05:14:06;4.97;;;2.00;;
64335;SDS011;50672;53.362;-6.240;2022-09-09T05:17:48;2.13;;;1.70;;
64335;SDS011;50672;53.362;-6.240;2022-09-09T05:20:14;3.97;;;2.00;;
64335;SDS011;50672;53.362;-6.240;2022-09-09T05:23:41;5.53;;;1.90;;
64335;SDS011;50672;53.362;-6.240;2022-09-09T05:27:07;4.17;;;2.30;;
64335;SDS011;50672;53.362;-6.240;2022-09-09T05:30:59;3.17;;;1.97;;
64335;SDS011;50672;53.362;-6.240;2022-09-09T05:34:16;2.73;;;2.00;;
64335;SDS011;50672;53.362;-6.240;2022-09-09T05:37:42;3.47;;;1.97;;
64335;SDS011;50672;53.362;-6.240;2022-09-09T05:41:34;4.33;;;2.33;;
64335;SDS011;50672;53.362;-6.240;2022-09-09T05:45:01;6.57;;;2.63;;
64335;SDS011;50672;53.362;-6.240;2022-09-09T05:48:33;4.37;;;2.20;;
64335;SDS011;50672;53.362;-6.240;2022-09-09T05:51:56;4.50;;;2.13;;
64335;SDS011;50672;53.362;-6.240;2022-09-09T05:54:22;2.87;;;2.27;;
64335;SDS011;50672;53.362;-6.240;2022-09-09T05:57:50;5.27;;;2.57;;
64335;SDS011;50672;53.362;-6.240;2022-09-09T06:01:42;5.53;;;2.40;;
64335;SDS011;50672;53.362;-6.240;2022-09-09T06:12:06;3.50;;;2.27;;
64335;SDS011;50672;53.362;-6.240;2022-09-09T06:14:34;3.33;;;2.80;;
64335;SDS011;50672;53.362;-6.240;2022-09-09T06:17:01;4.33;;;2.47;;
64335;SDS011;50672;53.362;-6.240;2022-09-09T06:19:28;3.27;;;2.53;;
64335;SDS011;50672;53.362;-6.240;2022-09-09T06:21:57;3.17;;;2.33;;
64335;SDS011;50672;53.362;-6.240;2022-09-09T06:24:24;7.70;;;2.80;;
64335;SDS011;50672;53.362;-6.240;2022-09-09T06:26:51;6.20;;;2.10;;
64335;SDS011;50672;53.362;-6.240;2022-09-09T06:29:18;6.40;;;2.43;;
64335;SDS011;50672;53.362;-6.240;2022-09-09T06:31:45;4.73;;;2.47;;
64335;SDS011;50672;53.362;-6.240;2022-09-09T06:34:12;4.07;;;2.57;;
64335;SDS011;50672;53.362;-6.240;2022-09-09T06:36:39;2.70;;;1.93;;
64335;SDS011;50672;53.362;-6.240;2022-09-09T06:39:06;2.77;;;1.93;;
64335;SDS011;50672;53.362;-6.240;2022-09-09T06:41:40;4.10;;;2.10;;
64335;SDS011;50672;53.362;-6.240;2022-09-09T06:44:09;4.50;;;2.40;;
64335;SDS011;50672;53.362;-6.240;2022-09-09T06:46:38;3.60;;;2.20;;
64335;SDS011;50672;53.362;-6.240;2022-09-09T06:49:06;3.37;;;2.10;;
64335;SDS011;50672;53.362;-6.240;2022-09-09T06:51:35;5.90;;;2.67;;
64335;SDS011;50672;53.362;-6.240;2022-09-09T06:54:09;5.50;;;2.67;;
64335;SDS011;50672;53.362;-6.240;2022-09-09T06:56:41;3.87;;;1.90;;
64335;SDS011;50672;53.362;-6.240;2022-09-09T06:59:09;4.18;;;2.38;;
64335;SDS011;50672;53.362;-6.240;2022-09-09T07:01:40;2.50;;;1.73;;
64335;SDS011;50672;53.362;-6.240;2022-09-09T07:04:10;3.17;;;1.80;;
64335;SDS011;50672;53.362;-6.240;2022-09-09T07:06:38;2.83;;;1.90;;
64335;SDS011;50672;53.362;-6.240;2022-09-09T07:09:09;3.20;;;1.67;;
64335;SDS011;50672;53.362;-6.240;2022-09-09T07:11:39;2.70;;;1.60;;
64335;SDS011;50672;53.362;-6.240;2022-09-09T07:14:14;3.43;;;2.03;;
64335;SDS011;50672;53.362;-6.240;2022-09-09T07:16:42;3.60;;;2.20;;
64335;SDS011;50672;53.362;-6.240;2022-09-09T07:19:10;2.60;;;1.67;;
64335;SDS011;50672;53.362;-6.240;2022-09-09T07:21:37;2.20;;;1.63;;
64335;SDS011;50672;53.362;-6.240;2022-09-09T07:24:04;3.93;;;1.90;;
64335;SDS011;50672;53.362;-6.240;2022-09-09T07:26:33;3.30;;;2.00;;
64335;SDS011;50672;53.362;-6.240;2022-09-09T07:29:01;2.80;;;1.50;;
64335;SDS011;50672;53.362;-6.240;2022-09-09T07:31:29;3.77;;;2.07;;
64335;SDS011;50672;53.362;-6.240;2022-09-09T07:33:58;4.00;;;1.93;;
64335;SDS011;50672;53.362;-6.240;2022-09-09T07:36:27;2.97;;;1.97;;
64335;SDS011;50672;53.362;-6.240;2022-09-09T07:39:11;1.73;;;1.40;;
64335;SDS011;50672;53.362;-6.240;2022-09-09T07:41:41;1.90;;;1.63;;
64335;SDS011;50672;53.362;-6.240;2022-09-09T07:44:10;2.73;;;1.70;;
64335;SDS011;50672;53.362;-6.240;2022-09-09T07:46:42;2.38;;;2.10;;
64335;SDS011;50672;53.362;-6.240;2022-09-09T07:49:10;3.43;;;1.90;;
64335;SDS011;50672;53.362;-6.240;2022-09-09T07:51:38;3.60;;;1.90;;
64335;SDS011;50672;53.362;-6.240;2022-09-09T07:54:08;3.33;;;1.83;;
64335;SDS011;50672;53.362;-6.240;2022-09-09T07:56:38;2.73;;;1.60;;
64335;SDS011;50672;53.362;-6.240;2022-09-09T07:59:06;4.33;;;2.07;;
64335;SDS011;50672;53.362;-6.240;2022-09-09T08:01:35;4.00;;;1.90;;
64335;SDS011;50672;53.362;-6.240;2022-09-09T08:04:07;4.20;;;1.85;;
64335;SDS011;50672;53.362;-6.240;2022-09-09T08:06:37;3.93;;;2.10;;
64335;SDS011;50672;53.362;-6.240;2022-09-09T08:09:07;3.13;;;1.60;;
64335;SDS011;50672;53.362;-6.240;2022-09-09T08:11:35;2.07;;;1.47;;
64335;SDS011;50672;53.362;-6.240;2022-09-09T08:14:05;2.63;;;1.80;;
64335;SDS011;50672;53.362;-6.240;2022-09-09T08:16:34;2.77;;;1.60;;
64335;SDS011;50672;53.362;-6.240;2022-09-09T08:19:04;3.33;;;1.50;;
64335;SDS011;50672;53.362;-6.240;2022-09-09T08:21:34;2.30;;;1.60;;
64335;SDS011;50672;53.362;-6.240;2022-09-09T08:24:02;2.03;;;0.90;;
64335;SDS011;50672;53.362;-6.240;2022-09-09T08:26:32;0.90;;;0.80;;
64335;SDS011;50672;53.362;-6.240;2022-09-09T08:29:02;3.07;;;0.97;;
64335;SDS011;50672;53.362;-6.240;2022-09-09T08:31:31;4.23;;;0.80;;
64335;SDS011;50672;53.362;-6.240;2022-09-09T08:34:03;1.60;;;0.90;;
64335;SDS011;50672;53.362;-6.240;2022-09-09T08:36:33;1.93;;;1.03;;
64335;SDS011;50672;53.362;-6.240;2022-09-09T08:39:03;3.07;;;1.10;;
64335;SDS011;50672;53.362;-6.240;2022-09-09T08:52:28;1.40;;;1.00;;
64335;SDS011;50672;53.362;-6.240;2022-09-09T08:55:10;2.23;;;1.00;;
64335;SDS011;50672;53.362;-6.240;2022-09-09T08:57:38;1.30;;;0.93;;
64335;SDS011;50672;53.362;-6.240;2022-09-09T09:00:07;2.37;;;1.00;;
64335;SDS011;50672;53.362;-6.240;2022-09-09T09:02:42;2.70;;;1.07;;
64335;SDS011;50672;53.362;-6.240;2022-09-09T09:05:20;1.23;;;0.70;;
64335;SDS011;50672;53.362;-6.240;2022-09-09T09:08:05;3.17;;;0.93;;
64335;SDS011;50672;53.362;-6.240;2022-09-09T09:10:53;0.87;;;0.73;;
64335;SDS011;50672;53.362;-6.240;2022-09-09T09:13:29;1.37;;;0.70;;
64335;SDS011;50672;53.362;-6.240;2022-09-09T09:15:58;2.67;;;1.00;;
64335;SDS011;50672;53.362;-6.240;2022-09-09T09:18:30;2.17;;;1.10;;
64335;SDS011;50672;53.362;-6.240;2022-09-09T09:21:06;1.63;;;0.73;;
64335;SDS011;50672;53.362;-6.240;2022-09-09T09:24:03;2.10;;;0.90;;
64335;SDS011;50672;53.362;-6.240;2022-09-09T09:26:47;1.87;;;0.70;;
64335;SDS011;50672;53.362;-6.240;2022-09-09T09:29:15;2.00;;;0.93;;
64335;SDS011;50672;53.362;-6.240;2022-09-09T09:31:53;2.30;;;1.10;;
64335;SDS011;50672;53.362;-6.240;2022-09-09T09:34:23;1.43;;;0.90;;
64335;SDS011;50672;53.362;-6.240;2022-09-09T09:36:54;2.33;;;0.73;;
64335;SDS011;50672;53.362;-6.240;2022-09-09T09:42:17;1.20;;;0.90;;
64335;SDS011;50672;53.362;-6.240;2022-09-09T09:44:48;1.10;;;0.80;;
64335;SDS011;50672;53.362;-6.240;2022-09-09T09:47:22;1.40;;;1.00;;
64335;SDS011;50672;53.362;-6.240;2022-09-09T09:49:53;2.30;;;1.03;;
64335;SDS011;50672;53.362;-6.240;2022-09-09T09:52:26;3.17;;;1.20;;
64335;SDS011;50672;53.362;-6.240;2022-09-09T09:54:58;2.15;;;0.80;;
64335;SDS011;50672;53.362;-6.240;2022-09-09T09:57:33;1.23;;;1.00;;
64335;SDS011;50672;53.362;-6.240;2022-09-09T10:02:42;1.87;;;1.10;;
64335;SDS011;50672;53.362;-6.240;2022-09-09T10:05:23;1.07;;;1.00;;
64335;SDS011;50672;53.362;-6.240;2022-09-09T10:08:27;2.13;;;1.00;;
64335;SDS011;50672;53.362;-6.240;2022-09-09T10:19:36;2.60;;;1.00;;
64335;SDS011;50672;53.362;-6.240;2022-09-09T10:27:58;1.63;;;1.30;;
64335;SDS011;50672;53.362;-6.240;2022-09-09T10:30:49;2.30;;;1.40;;
64335;SDS011;50672;53.362;-6.240;2022-09-09T10:34:08;2.50;;;1.47;;
64335;SDS011;50672;53.362;-6.240;2022-09-09T10:36:56;1.20;;;1.10;;
64335;SDS011;50672;53.362;-6.240;2022-09-09T10:40:30;1.33;;;1.23;;
64335;SDS011;50672;53.362;-6.240;2022-09-09T10:46:53;1.23;;;1.10;;
64335;SDS011;50672;53.362;-6.240;2022-09-09T10:56:57;2.13;;;1.33;;
64335;SDS011;50672;53.362;-6.240;2022-09-09T11:00:31;2.40;;;1.20;;
64335;SDS011;50672;53.362;-6.240;2022-09-09T11:04:05;3.10;;;1.40;;
64335;SDS011;50672;53.362;-6.240;2022-09-09T11:13:46;1.40;;;1.08;;
64335;SDS011;50672;53.362;-6.240;2022-09-09T11:19:48;1.88;;;0.95;;
64335;SDS011;50672;53.362;-6.240;2022-09-09T11:22:04;2.23;;;1.40;;
64335;SDS011;50672;53.362;-6.240;2022-09-09T11:25:01;2.27;;;1.13;;
64335;SDS011;50672;53.362;-6.240;2022-09-09T11:30:28;3.57;;;1.40;;
64335;SDS011;50672;53.362;-6.240;2022-09-09T11:38:52;3.77;;;1.63;;
64335;SDS011;50672;53.362;-6.240;2022-09-09T11:41:33;1.80;;;1.47;;
64335;SDS011;50672;53.362;-6.240;2022-09-09T11:44:12;1.40;;;1.00;;
64335;SDS011;50672;53.362;-6.240;2022-09-09T11:46:44;1.00;;;1.00;;
64335;SDS011;50672;53.362;-6.240;2022-09-09T11:49:48;2.90;;;1.30;;
64335;SDS011;50672;53.362;-6.240;2022-09-09T11:54:54;2.00;;;1.10;;
64335;SDS011;50672;53.362;-6.240;2022-09-09T11:57:24;1.90;;;1.30;;
64335;SDS011;50672;53.362;-6.240;2022-09-09T11:59:57;2.10;;;1.20;;
64335;SDS011;50672;53.362;-6.240;2022-09-09T12:02:26;2.23;;;1.57;;
64335;SDS011;50672;53.362;-6.240;2022-09-09T12:07:39;2.30;;;1.50;;
64335;SDS011;50672;53.362;-6.240;2022-09-09T12:12:54;1.53;;;1.20;;
64335;SDS011;50672;53.362;-6.240;2022-09-09T12:15:22;2.73;;;1.30;;
64335;SDS011;50672;53.362;-6.240;2022-09-09T12:17:56;2.10;;;1.20;;
64335;SDS011;50672;53.362;-6.240;2022-09-09T12:20:38;1.63;;;1.40;;
64335;SDS011;50672;53.362;-6.240;2022-09-09T12:26:24;3.43;;;1.57;;
64335;SDS011;50672;53.362;-6.240;2022-09-09T12:32:18;1.13;;;1.00;;
64335;SDS011;50672;53.362;-6.240;2022-09-09T12:40:18;2.23;;;1.20;;
64335;SDS011;50672;53.362;-6.240;2022-09-09T12:42:48;1.48;;;1.35;;
64335;SDS011;50672;53.362;-6.240;2022-09-09T12:45:19;2.23;;;1.20;;
64335;SDS011;50672;53.362;-6.240;2022-09-09T12:47:54;2.03;;;1.40;;
64335;SDS011;50672;53.362;-6.240;2022-09-09T12:50:25;3.70;;;1.03;;
64335;SDS011;50672;53.362;-6.240;2022-09-09T12:52:55;1.93;;;1.40;;
64335;SDS011;50672;53.362;-6.240;2022-09-09T12:55:27;2.07;;;1.27;;
64335;SDS011;50672;53.362;-6.240;2022-09-09T12:57:56;2.92;;;1.65;;
64335;SDS011;50672;53.362;-6.240;2022-09-09T13:00:26;1.90;;;1.00;;
64335;SDS011;50672;53.362;-6.240;2022-09-09T13:02:54;3.17;;;1.30;;
64335;SDS011;50672;53.362;-6.240;2022-09-09T13:05:24;7.63;;;1.73;;
64335;SDS011;50672;53.362;-6.240;2022-09-09T13:08:06;2.23;;;1.10;;
64335;SDS011;50672;53.362;-6.240;2022-09-09T13:10:38;2.05;;;1.10;;
64335;SDS011;50672;53.362;-6.240;2022-09-09T13:15:59;1.77;;;1.20;;
64335;SDS011;50672;53.362;-6.240;2022-09-09T13:18:29;2.10;;;1.00;;
64335;SDS011;50672;53.362;-6.240;2022-09-09T13:20:58;1.80;;;1.30;;
64335;SDS011;50672;53.362;-6.240;2022-09-09T13:23:29;3.63;;;1.70;;
64335;SDS011;50672;53.362;-6.240;2022-09-09T13:25:59;2.33;;;1.17;;
64335;SDS011;50672;53.362;-6.240;2022-09-09T13:28:29;2.45;;;1.10;;
64335;SDS011;50672;53.362;-6.240;2022-09-09T13:33:30;3.08;;;1.00;;
64335;SDS011;50672;53.362;-6.240;2022-09-09T13:36:01;4.87;;;1.30;;
64335;SDS011;50672;53.362;-6.240;2022-09-09T13:38:32;3.90;;;1.70;;
64335;SDS011;50672;53.362;-6.240;2022-09-09T13:41:06;3.00;;;1.30;;
64335;SDS011;50672;53.362;-6.240;2022-09-09T13:43:38;2.10;;;1.13;;
64335;SDS011;50672;53.362;-6.240;2022-09-09T13:51:36;2.60;;;1.63;;
64335;SDS011;50672;53.362;-6.240;2022-09-09T13:54:14;3.07;;;1.60;;
64335;SDS011;50672;53.362;-6.240;2022-09-09T13:56:42;2.67;;;1.90;;
64335;SDS011;50672;53.362;-6.240;2022-09-09T13:59:11;6.70;;;2.93;;
64335;SDS011;50672;53.362;-6.240;2022-09-09T14:01:39;3.47;;;2.07;;
64335;SDS011;50672;53.362;-6.240;2022-09-09T14:04:06;5.57;;;2.70;;
64335;SDS011;50672;53.362;-6.240;2022-09-09T14:06:33;3.77;;;2.60;;
64335;SDS011;50672;53.362;-6.240;2022-09-09T14:09:09;2.67;;;2.20;;
64335;SDS011;50672;53.362;-6.240;2022-09-09T14:11:38;3.90;;;2.57;;
64335;SDS011;50672;53.362;-6.240;2022-09-09T14:14:06;3.30;;;2.33;;
64335;SDS011;50672;53.362;-6.240;2022-09-09T14:16:33;3.00;;;2.60;;
64335;SDS011;50672;53.362;-6.240;2022-09-09T14:19:00;4.80;;;2.90;;
64335;SDS011;50672;53.362;-6.240;2022-09-09T14:21:27;6.03;;;3.40;;
64335;SDS011;50672;53.362;-6.240;2022-09-09T14:23:54;5.93;;;2.90;;
64335;SDS011;50672;53.362;-6.240;2022-09-09T14:26:23;4.53;;;3.13;;
64335;SDS011;50672;53.362;-6.240;2022-09-09T14:28:51;5.80;;;2.87;;
64335;SDS011;50672;53.362;-6.240;2022-09-09T14:31:21;6.03;;;1.90;;
64335;SDS011;50672;53.362;-6.240;2022-09-09T14:33:50;2.50;;;2.30;;
64335;SDS011;50672;53.362;-6.240;2022-09-09T14:36:17;3.63;;;2.47;;
64335;SDS011;50672;53.362;-6.240;2022-09-09T14:38:44;2.83;;;2.20;;
64335;SDS011;50672;53.362;-6.240;2022-09-09T14:41:12;2.43;;;2.20;;
64335;SDS011;50672;53.362;-6.240;2022-09-09T14:43:43;3.83;;;1.60;;
64335;SDS011;50672;53.362;-6.240;2022-09-09T14:46:11;2.10;;;1.90;;
64335;SDS011;50672;53.362;-6.240;2022-09-09T14:48:43;3.70;;;3.40;;
64335;SDS011;50672;53.362;-6.240;2022-09-09T14:51:15;2.17;;;1.60;;
64335;SDS011;50672;53.362;-6.240;2022-09-09T14:53:50;5.57;;;1.67;;
64335;SDS011;50672;53.362;-6.240;2022-09-09T14:56:19;2.72;;;1.60;;
64335;SDS011;50672;53.362;-6.240;2022-09-09T14:58:49;2.47;;;1.85;;
64335;SDS011;50672;53.362;-6.240;2022-09-09T15:01:17;3.25;;;2.35;;
64335;SDS011;50672;53.362;-6.240;2022-09-09T15:03:55;1.95;;;0.82;;
64335;SDS011;50672;53.362;-6.240;2022-09-09T15:06:28;1.65;;;1.00;;
64335;SDS011;50672;53.362;-6.240;2022-09-09T15:11:27;2.22;;;1.05;;
64335;SDS011;50672;53.362;-6.240;2022-09-09T15:13:57;2.05;;;1.85;;
64335;SDS011;50672;53.362;-6.240;2022-09-09T15:16:25;4.25;;;3.95;;
64335;SDS011;50672;53.362;-6.240;2022-09-09T15:18:54;0.93;;;0.73;;
64335;SDS011;50672;53.362;-6.240;2022-09-09T15:21:24;1.00;;;0.75;;
64335;SDS011;50672;53.362;-6.240;2022-09-09T15:23:52;1.98;;;0.93;;
64335;SDS011;50672;53.362;-6.240;2022-09-09T15:26:20;1.02;;;0.82;;
64335;SDS011;50672;53.362;-6.240;2022-09-09T15:28:47;3.15;;;1.30;;
64335;SDS011;50672;53.362;-6.240;2022-09-09T15:31:23;1.42;;;0.90;;
64335;SDS011;50672;53.362;-6.240;2022-09-09T15:33:55;0.63;;;0.50;;
64335;SDS011;50672;53.362;-6.240;2022-09-09T15:36:30;1.52;;;0.60;;
64335;SDS011;50672;53.362;-6.240;2022-09-09T15:39:01;1.02;;;0.60;;
64335;SDS011;50672;53.362;-6.240;2022-09-09T15:41:29;1.77;;;0.80;;
64335;SDS011;50672;53.362;-6.240;2022-09-09T15:43:57;1.38;;;0.90;;
64335;SDS011;50672;53.362;-6.240;2022-09-09T15:46:32;0.73;;;0.73;;
64335;SDS011;50672;53.362;-6.240;2022-09-09T15:49:06;1.17;;;0.70;;
64335;SDS011;50672;53.362;-6.240;2022-09-09T15:51:39;3.08;;;1.17;;
64335;SDS011;50672;53.362;-6.240;2022-09-09T15:54:14;1.08;;;0.98;;
64335;SDS011;50672;53.362;-6.240;2022-09-09T15:56:47;1.87;;;0.97;;
64335;SDS011;50672;53.362;-6.240;2022-09-09T15:59:17;1.80;;;0.90;;
64335;SDS011;50672;53.362;-6.240;2022-09-09T16:01:44;13.00;;;12.50;;
64335;SDS011;50672;53.362;-6.240;2022-09-09T16:04:11;5.22;;;5.03;;
64335;SDS011;50672;53.362;-6.240;2022-09-09T16:06:38;1.25;;;1.15;;
64335;SDS011;50672;53.362;-6.240;2022-09-09T16:09:06;1.80;;;1.15;;
64335;SDS011;50672;53.362;-6.240;2022-09-09T16:11:34;2.88;;;0.95;;
64335;SDS011;50672;53.362;-6.240;2022-09-09T16:14:03;1.73;;;0.63;;
64335;SDS011;50672;53.362;-6.240;2022-09-09T16:16:30;1.60;;;1.08;;
64335;SDS011;50672;53.362;-6.240;2022-09-09T16:18:58;2.80;;;1.40;;
64335;SDS011;50672;53.362;-6.240;2022-09-09T16:21:31;3.50;;;1.50;;
64335;SDS011;50672;53.362;-6.240;2022-09-09T16:24:01;4.25;;;1.75;;
64335;SDS011;50672;53.362;-6.240;2022-09-09T16:26:30;2.15;;;1.63;;
64335;SDS011;50672;53.362;-6.240;2022-09-09T16:28:59;2.45;;;1.10;;
64335;SDS011;50672;53.362;-6.240;2022-09-09T16:31:27;1.63;;;1.50;;
64335;SDS011;50672;53.362;-6.240;2022-09-09T16:33:55;3.58;;;1.08;;
64335;SDS011;50672;53.362;-6.240;2022-09-09T16:36:23;1.20;;;0.80;;
64335;SDS011;50672;53.362;-6.240;2022-09-09T16:38:54;1.57;;;1.37;;
64335;SDS011;50672;53.362;-6.240;2022-09-09T16:41:24;2.35;;;1.02;;
64335;SDS011;50672;53.362;-6.240;2022-09-09T16:43:53;2.47;;;1.00;;
64335;SDS011;50672;53.362;-6.240;2022-09-09T16:46:23;2.60;;;1.10;;
64335;SDS011;50672;53.362;-6.240;2022-09-09T16:48:50;1.63;;;1.20;;
64335;SDS011;50672;53.362;-6.240;2022-09-09T16:51:19;1.10;;;1.00;;
64335;SDS011;50672;53.362;-6.240;2022-09-09T16:53:49;2.77;;;1.30;;
64335;SDS011;50672;53.362;-6.240;2022-09-09T16:56:29;3.50;;;1.33;;
64335;SDS011;50672;53.362;-6.240;2022-09-09T16:59:05;2.27;;;1.40;;
64335;SDS011;50672;53.362;-6.240;2022-09-09T17:01:34;2.40;;;1.00;;
64335;SDS011;50672;53.362;-6.240;2022-09-09T17:04:11;2.00;;;0.80;;
64335;SDS011;50672;53.362;-6.240;2022-09-09T17:06:40;3.00;;;0.90;;
64335;SDS011;50672;53.362;-6.240;2022-09-09T17:09:09;3.80;;;1.63;;
64335;SDS011;50672;53.362;-6.240;2022-09-09T17:11:37;4.07;;;1.50;;
64335;SDS011;50672;53.362;-6.240;2022-09-09T17:14:06;3.80;;;1.37;;
64335;SDS011;50672;53.362;-6.240;2022-09-09T17:16:35;4.20;;;1.70;;
64335;SDS011;50672;53.362;-6.240;2022-09-09T17:19:04;4.97;;;1.83;;
64335;SDS011;50672;53.362;-6.240;2022-09-09T17:21:31;2.83;;;1.87;;
64335;SDS011;50672;53.362;-6.240;2022-09-09T17:23:59;2.60;;;1.60;;
64335;SDS011;50672;53.362;-6.240;2022-09-09T17:26:28;3.20;;;2.03;;
64335;SDS011;50672;53.362;-6.240;2022-09-09T17:28:57;3.77;;;1.80;;
64335;SDS011;50672;53.362;-6.240;2022-09-09T17:31:28;2.33;;;1.40;;
64335;SDS011;50672;53.362;-6.240;2022-09-09T17:33:56;2.67;;;1.50;;
64335;SDS011;50672;53.362;-6.240;2022-09-09T17:36:26;4.83;;;1.60;;
64335;SDS011;50672;53.362;-6.240;2022-09-09T17:38:57;4.17;;;1.77;;
64335;SDS011;50672;53.362;-6.240;2022-09-09T17:41:30;2.73;;;1.47;;
64335;SDS011;50672;53.362;-6.240;2022-09-09T17:44:02;1.83;;;1.00;;
64335;SDS011;50672;53.362;-6.240;2022-09-09T17:46:31;1.10;;;0.60;;
64335;SDS011;50672;53.362;-6.240;2022-09-09T17:49:07;1.80;;;0.70;;
64335;SDS011;50672;53.362;-6.240;2022-09-09T17:51:35;4.28;;;1.60;;
64335;SDS011;50672;53.362;-6.240;2022-09-09T17:54:06;1.80;;;0.80;;
64335;SDS011;50672;53.362;-6.240;2022-09-09T17:59:03;1.20;;;0.97;;
64335;SDS011;50672;53.362;-6.240;2022-09-09T18:01:34;2.13;;;1.30;;
64335;SDS011;50672;53.362;-6.240;2022-09-09T18:04:04;7.30;;;4.60;;
64335;SDS011;50672;53.362;-6.240;2022-09-09T18:06:33;5.67;;;4.73;;